Terminal Aerodrome Forecast
Issued by NWS

Home | Current Version | Previous Version | Text Only | Print | Product List | Glossary On
Versions: 1 2 3 4 5 6 7 8 9 10 11 12 13 14 15 16 17 18 19 20
584
FTUS46 KEKA 031122
TAFCEC
TAF
KCEC 031122Z 0312/0412 02005KT P6SM VCSH SCT020 BKN030 OVC040
     FM031600 34008KT P6SM SCT025 SCT060 SCT250
     FM040100 VRB05KT P6SM SCT100 BKN250
     FM040500 VRB03KT P6SM BKN050 OVC150=

USA.gov is the U.S. government's official web portal to all federal, state and local government web resources and services.